Time;durP1;ratioP1;P1;durP2;ratioP2;P2;SDS_P1;SDS_P2;PMS_P1;PMS_P2;Temp;Humidity;BMP_temperature;BMP_pressure;BME280_temperature;BME280_humidity;BME280_pressure;Samples;Min_cycle;Max_cycle;Signal;HPM_P1;HPM_P2
2022/06/28 15:15:51;;;;;;;4.57;3.60;;;;;;;24.32;67.25;101205.13;1358140;27;10001516;-60
2022/06/28 15:16:53;;;;;;;4.22;3.30;;;;;;;24.59;65.58;101204.25;2046923;28;20356;-61
2022/06/28 15:17:57;;;;;;;4.50;3.35;;;;;;;24.82;64.84;101209.84;2028267;28;20039;-60
2022/06/28 15:19:00;;;;;;;5.05;3.63;;;;;;;25.04;63.88;101210.31;2043030;28;20074;-63
2022/06/28 15:20:03;;;;;;;4.45;3.22;;;;;;;25.23;63.38;101210.34;2037383;28;20062;-62
2022/06/28 15:30:51;;;;;;;4.18;3.30;;;;;;;25.36;62.53;101208.22;2041285;29;20194;-61
2022/06/28 15:30:53;;;;;;;3.63;2.80;;;;;;;26.02;58.60;101212.63;2039694;28;20043;-73
2022/06/28 15:31:55;;;;;;;6.35;3.40;;;;;;;26.05;58.38;101214.63;2045897;28;20396;-72
2022/06/28 15:32:59;;;;;;;3.17;2.83;;;;;;;26.06;58.70;101210.72;2041950;29;20904;-72
2022/06/28 15:34:06;;;;;;;3.90;2.92;;;;;;;26.09;58.38;101221.00;2042764;28;20058;-73
2022/06/28 15:35:09;;;;;;;3.85;3.15;;;;;;;26.10;58.16;101217.09;2024294;28;20677;-71
2022/06/28 15:36:12;;;;;;;4.97;3.15;;;;;;;26.11;57.66;101218.69;2048200;28;20050;-74
2022/06/28 15:37:14;;;;;;;4.25;2.97;;;;;;;26.14;57.72;101219.13;2049574;28;20483;-75
2022/06/28 15:38:19;;;;;;;4.22;2.80;;;;;;;26.15;57.87;101223.44;2042650;29;20067;-76
2022/06/28 15:39:21;;;;;;;3.75;2.45;;;;;;;26.17;57.97;101230.19;2049716;28;20043;-72
2022/06/28 15:40:24;;;;;;;4.90;2.50;;;;;;;26.18;57.61;101228.22;2039643;29;20051;-72
2022/06/28 15:41:27;;;;;;;4.78;2.63;;;;;;;26.19;57.65;101225.09;2025650;29;20248;-71
2022/06/28 15:42:29;;;;;;;2.95;2.33;;;;;;;26.20;57.00;101223.13;2035056;29;20665;-74
2022/06/28 15:43:31;;;;;;;4.03;2.80;;;;;;;26.19;57.14;101227.06;2031358;29;20634;-74
2022/06/28 15:44:43;;;;;;;3.92;3.22;;;;;;;26.20;57.06;101223.13;2031967;28;20561;-68
2022/06/28 15:45:50;;;;;;;6.10;3.08;;;;;;;26.21;56.60;101225.53;2038574;28;20491;-74
2022/06/28 15:46:53;;;;;;;5.13;3.35;;;;;;;26.22;57.42;101229.88;2028720;29;20048;-68
2022/06/28 15:47:58;;;;;;;6.25;3.28;;;;;;;26.24;57.01;101235.03;2029054;29;20052;-72
2022/06/28 15:49:02;;;;;;;6.63;3.10;;;;;;;26.24;57.06;101235.03;2068728;28;20080;-69
2022/06/28 15:50:11;;;;;;;4.68;2.35;;;;;;;26.27;56.80;101237.84;2073474;28;20049;-70
2022/06/28 15:51:23;;;;;;;3.17;2.65;;;;;;;26.29;56.90;101231.94;2070334;28;20045;-77
2022/06/28 15:52:30;;;;;;;;;;;;;;;26.31;56.76;101232.38;2074217;28;20057;-67
2022/06/28 15:53:35;;;;;;;3.47;2.05;;;;;;;26.31;56.54;101241.44;2075256;28;19917;-71
2022/06/28 15:54:38;;;;;;;3.10;2.30;;;;;;;26.33;56.25;101243.84;2072310;28;20438;-68
2022/06/28 15:55:41;;;;;;;5.00;2.83;;;;;;;26.34;56.36;101239.91;2067238;28;20074;-66
2022/06/28 15:56:44;;;;;;;7.45;2.80;;;;;;;26.35;56.23;101241.47;2073014;28;20401;-64
2022/06/28 15:57:49;;;;;;;8.52;4.95;;;;;;;26.36;55.95;101243.09;2073364;28;20070;-62
2022/06/28 15:58:57;;;;;;;5.75;3.90;;;;;;;26.35;56.10;101241.47;2064902;28;20057;-70
2022/06/28 15:59:58;;;;;;;6.90;3.83;;;;;;;26.35;55.75;101241.47;2059508;28;20062;-63
2022/06/28 16:01:02;;;;;;;5.85;3.28;;;;;;;26.33;55.62;101243.84;2056950;28;20057;-61
2022/06/28 16:02:04;;;;;;;5.85;3.80;;;;;;;26.34;55.89;101234.38;2075347;28;20053;-68
2022/06/28 16:03:08;;;;;;;4.53;3.10;;;;;;;26.32;56.07;101228.44;2075724;28;20670;-81
2022/06/28 16:04:14;;;;;;;6.38;3.50;;;;;;;26.31;55.60;101224.09;2075756;28;20049;-64
2022/06/28 16:05:17;;;;;;;4.75;3.22;;;;;;;26.32;55.85;101237.53;2064771;28;20053;-66
2022/06/28 16:06:19;;;;;;;5.13;3.17;;;;;;;26.33;56.01;101235.56;2072761;28;20405;-71
2022/06/28 16:07:22;;;;;;;4.35;3.40;;;;;;;26.33;55.58;101238.31;2082374;28;20628;-77
2022/06/28 16:08:25;;;;;;;8.10;4.90;;;;;;;26.33;55.71;101230.06;2072181;28;20049;-65
2022/06/28 16:09:30;;;;;;;6.15;3.30;;;;;;;26.31;55.52;101229.63;2069524;28;20072;-69
2022/06/28 16:10:37;;;;;;;8.15;3.63;;;;;;;26.31;55.44;101229.63;2071926;28;20064;-60
2022/06/28 16:11:39;;;;;;;4.15;3.30;;;;;;;26.31;55.70;101229.63;2067860;28;20038;-68
2022/06/28 16:13:00;;;;;;;4.50;2.50;;;;;;;26.31;55.36;101229.63;2060192;28;20242;-73
2022/06/28 16:14:02;;;;;;;4.40;3.00;;;;;;;26.32;55.67;101228.44;2066044;28;20177;-71
2022/06/28 16:15:11;;;;;;;3.47;2.35;;;;;;;26.33;55.80;101221.78;2052844;28;20085;-70
2022/06/28 16:16:15;;;;;;;3.40;2.72;;;;;;;26.35;55.58;101224.94;2069001;28;20108;-69
2022/06/28 16:17:22;;;;;;;5.10;2.88;;;;;;;26.37;55.46;101221.84;2070084;28;20056;-70
2022/06/28 16:18:26;;;;;;;3.67;2.80;;;;;;;26.37;55.52;101211.59;2058387;28;20065;-68
2022/06/28 16:19:35;;;;;;;3.38;2.40;;;;;;;26.37;55.51;101208.84;2059986;28;20459;-66
2022/06/28 16:20:40;;;;;;;4.45;2.53;;;;;;;26.36;55.22;101199.00;2065298;28;20054;-66
2022/06/28 16:21:45;;;;;;;2.70;2.40;;;;;;;26.35;55.55;101208.41;2066113;28;20506;-66
2022/06/28 16:22:49;;;;;;;3.67;2.53;;;;;;;26.34;54.71;101213.13;2070986;28;20061;-70
2022/06/28 16:23:51;;;;;;;9.63;4.05;;;;;;;26.33;54.93;101208.00;2064483;28;20049;-67
2022/06/28 16:24:54;;;;;;;8.25;4.53;;;;;;;26.34;55.08;101209.59;2065808;28;20129;-69
2022/06/28 16:25:59;;;;;;;10.75;4.38;;;;;;;26.35;55.19;101200.13;2072409;28;20093;-73
2022/06/28 16:27:05;;;;;;;5.63;3.30;;;;;;;26.36;55.36;101204.50;2056352;28;20114;-68
2022/06/28 16:28:07;;;;;;;19.55;3.30;;;;;;;26.37;55.55;101203.31;2053483;28;20054;-75
2022/06/28 16:29:09;;;;;;;5.25;2.70;;;;;;;26.37;55.17;101200.56;2065497;28;20050;-59
2022/06/28 16:30:12;;;;;;;4.25;2.70;;;;;;;26.38;55.22;101202.16;2051906;28;20046;-61
2022/06/28 16:34:08;;;;;;;4.47;2.40;;;;;;;24.85;57.20;101205.59;2104305;27;20118;-67
2022/06/28 16:35:13;;;;;;;7.13;3.53;;;;;;;24.56;60.29;101199.47;2082397;28;20428;-69
2022/06/28 16:36:15;;;;;;;5.68;4.53;;;;;;;24.38;60.71;101212.75;2076040;28;20057;-62
2022/06/28 16:37:21;;;;;;;4.50;3.28;;;;;;;24.16;60.33;101203.19;2082699;28;20045;-65
2022/06/28 16:38:26;;;;;;;4.97;2.92;;;;;;;23.89;60.99;101209.56;2080594;28;20107;-64
2022/06/28 16:39:29;;;;;;;6.78;4.82;;;;;;;23.56;61.27;101207.91;2077117;28;20053;-64
2022/06/28 16:40:36;;;;;;;3.10;2.75;;;;;;;23.24;62.40;101202.31;2086731;28;20045;-65
2022/06/28 16:41:40;;;;;;;3.22;2.60;;;;;;;22.95;63.31;101202.63;2086326;28;20480;-62
2022/06/28 16:42:43;;;;;;;3.15;2.15;;;;;;;22.58;64.17;101202.69;2089990;28;20313;-64
2022/06/28 16:43:47;;;;;;;8.88;6.22;;;;;;;22.36;65.15;101199.25;2084768;28;20040;-63
2022/06/28 16:44:52;;;;;;;44.15;26.08;;;;;;;22.21;65.71;101197.19;2078563;28;20551;-63
2022/06/28 16:45:56;;;;;;;14.60;8.10;;;;;;;22.12;66.49;101201.97;2076630;28;20061;-63
2022/06/28 16:46:58;;;;;;;7.68;5.13;;;;;;;22.13;66.92;101203.53;2084254;28;20059;-63
2022/06/28 16:48:04;;;;;;;10.95;6.10;;;;;;;22.13;66.83;101198.06;2081854;28;20803;-64
2022/06/28 16:49:09;;;;;;;11.73;5.95;;;;;;;22.12;67.28;101204.69;2086813;28;20049;-63
2022/06/28 16:50:12;;;;;;;8.82;6.18;;;;;;;22.15;67.30;101195.81;2089251;28;20091;-63
2022/06/28 16:51:17;;;;;;;11.20;7.32;;;;;;;22.12;67.00;101201.97;2090959;28;20782;-62
2022/06/28 16:52:20;;;;;;;14.30;8.77;;;;;;;22.15;67.35;101206.75;2091117;28;20487;-62
2022/06/28 16:53:25;;;;;;;8.18;4.38;;;;;;;22.12;67.45;101210.16;2077757;28;20057;-63
2022/06/28 16:54:27;;;;;;;5.32;3.80;;;;;;;22.12;67.47;101207.44;2080538;28;20069;-63
2022/06/28 16:55:30;;;;;;;5.07;3.58;;;;;;;22.04;67.44;101208.34;2071400;28;20050;-63
2022/06/28 16:56:37;;;;;;;5.03;3.08;;;;;;;22.03;67.48;101204.00;2067010;28;20049;-63
2022/06/28 16:57:40;;;;;;;5.72;3.92;;;;;;;22.01;67.84;101204.34;2076610;28;20052;-64
2022/06/28 16:58:43;;;;;;;6.03;4.13;;;;;;;22.03;67.73;101204.00;2096192;28;20496;-63
2022/06/28 16:59:47;;;;;;;5.18;2.78;;;;;;;21.97;67.56;101195.19;2089421;28;20473;-63
2022/06/28 17:00:54;;;;;;;3.72;2.85;;;;;;;21.97;67.60;101196.03;2089295;28;20056;-63
2022/06/28 17:02:00;;;;;;;3.60;2.78;;;;;;;21.98;67.14;101192.13;2068691;28;20053;-63
2022/06/28 17:03:02;;;;;;;4.85;2.42;;;;;;;22.02;67.08;101194.19;2073813;28;20045;-64
2022/06/28 17:04:07;;;;;;;5.50;2.55;;;;;;;22.00;67.14;101194.53;2088606;28;20049;-64
2022/06/28 17:05:11;;;;;;;4.10;2.63;;;;;;;21.94;67.12;101187.66;2090295;28;20044;-63
2022/06/28 17:07:42;;;;;;;5.30;2.88;;;;;;;22.04;66.80;101191.94;2092104;28;20067;-63
2022/06/28 17:08:44;;;;;;;3.67;2.60;;;;;;;22.05;66.75;101185.31;2084579;28;20554;-63
2022/06/28 17:09:49;;;;;;;3.95;2.97;;;;;;;22.06;66.83;101187.69;2077295;28;20053;-63
2022/06/28 17:10:57;;;;;;;5.18;2.38;;;;;;;22.03;66.62;101182.09;2085183;28;20080;-63
2022/06/28 17:12:01;;;;;;;6.88;2.80;;;;;;;22.03;67.04;101188.38;2091317;28;20053;-62
2022/06/28 17:13:03;;;;;;;4.18;2.70;;;;;;;21.98;66.75;101181.19;2089982;28;20032;-63
2022/06/28 17:14:10;;;;;;;4.78;2.28;;;;;;;22.03;66.73;101177.41;2065134;28;20061;-62
2022/06/28 17:15:14;;;;;;;3.03;2.20;;;;;;;22.06;66.61;101184.94;2058686;28;20053;-62
2022/06/28 17:16:20;;;;;;;3.75;2.45;;;;;;;22.01;66.49;101187.13;2089014;28;20040;-63
2022/06/28 17:17:26;;;;;;;4.72;2.42;;;;;;;22.02;66.45;101180.50;2080773;28;20049;-63
2022/06/28 17:18:34;;;;;;;5.35;3.22;;;;;;;22.02;66.80;101185.97;2086709;28;20056;-65
2022/06/28 17:19:43;;;;;;;7.03;2.28;;;;;;;22.08;66.65;101190.88;2081544;28;20820;-63
2022/06/28 17:20:48;;;;;;;5.88;2.60;;;;;;;22.10;66.59;101188.63;2080797;28;20057;-63
2022/06/28 17:22:04;;;;;;;4.40;2.40;;;;;;;22.06;66.26;101189.63;2089874;28;20052;-63
2022/06/28 17:23:09;;;;;;;6.18;3.63;;;;;;;22.01;66.64;101198.09;2088079;28;20040;-63
2022/06/28 17:24:12;;;;;;;4.18;2.80;;;;;;;21.89;66.94;101191.44;2090629;28;20055;-64
2022/06/28 17:25:15;;;;;;;4.70;3.25;;;;;;;21.90;67.08;101190.28;2076236;28;20908;-63
2022/06/28 17:26:19;;;;;;;6.13;3.90;;;;;;;21.92;67.21;101198.97;2089692;28;20144;-63
2022/06/28 17:27:22;;;;;;;10.45;6.90;;;;;;;21.96;67.31;101193.63;2081852;28;20053;-63
2022/06/28 17:28:27;;;;;;;3.55;2.53;;;;;;;21.99;67.00;101193.72;2091266;28;20063;-63
2022/06/28 17:29:30;;;;;;;5.30;3.10;;;;;;;22.02;67.15;101186.78;2089796;28;20060;-65
2022/06/28 17:30:35;;;;;;;3.72;2.72;;;;;;;22.06;66.88;101192.38;2090628;28;20067;-63
2022/06/28 17:31:44;;;;;;;3.40;2.28;;;;;;;22.03;66.51;101187.56;2081911;28;20052;-62
2022/06/28 17:32:50;;;;;;;3.72;2.67;;;;;;;21.95;66.63;101192.03;2085676;28;20143;-64
2022/06/28 17:33:54;;;;;;;3.60;2.35;;;;;;;21.95;66.70;101198.28;2073883;28;20053;-63
2022/06/28 17:34:58;;;;;;;4.47;2.65;;;;;;;22.01;66.58;101198.88;2072336;28;20054;-64
2022/06/28 17:36:03;;;;;;;4.63;2.97;;;;;;;22.08;66.38;101193.63;2077574;28;20376;-64
2022/06/28 17:37:08;;;;;;;4.10;2.55;;;;;;;22.06;66.27;101192.38;2088556;28;20049;-63
2022/06/28 17:38:12;;;;;;;7.78;3.33;;;;;;;22.06;66.24;101189.63;2099504;28;20051;-64
2022/06/28 17:39:15;;;;;;;10.20;3.75;;;;;;;22.10;65.88;101199.56;2067229;28;20049;-63
2022/06/28 17:40:22;;;;;;;4.75;2.67;;;;;;;22.12;65.63;101188.25;2076210;28;20097;-64
2022/06/28 17:41:26;;;;;;;4.53;2.30;;;;;;;22.14;65.59;101188.72;2084771;28;20057;-64
2022/06/28 17:42:31;;;;;;;3.35;2.38;;;;;;;22.14;65.60;101194.22;2084951;28;20765;-63
2022/06/28 17:43:33;;;;;;;4.50;2.30;;;;;;;22.14;65.74;101197.75;2081832;28;20096;-64
2022/06/28 17:44:40;;;;;;;6.55;2.90;;;;;;;22.15;65.57;101202.06;2072165;28;20651;-64
2022/06/28 17:45:44;;;;;;;4.05;2.72;;;;;;;22.18;65.45;101201.41;2070936;28;20044;-63
2022/06/28 17:46:51;;;;;;;4.57;2.47;;;;;;;22.18;65.38;101195.94;2084382;28;20116;-64
2022/06/28 17:47:53;;;;;;;4.18;2.47;;;;;;;22.13;65.40;101200.81;2078156;28;20065;-64
2022/06/28 17:49:03;;;;;;;3.95;2.25;;;;;;;22.09;65.26;101202.63;2074480;28;20528;-70
2022/06/28 17:50:10;;;;;;;3.80;2.40;;;;;;;22.03;65.29;101206.75;2080935;28;20052;-65
2022/06/28 17:51:15;;;;;;;6.07;2.50;;;;;;;21.98;65.35;101205.03;2076403;28;20914;-66
2022/06/28 17:52:32;;;;;;;8.50;2.60;;;;;;;21.86;65.43;101205.81;2073828;28;20049;-64
2022/06/28 17:53:39;;;;;;;4.05;2.42;;;;;;;21.83;65.50;101205.69;2072987;28;20056;-65
2022/06/28 17:54:43;;;;;;;5.18;2.25;;;;;;;21.80;65.43;101200.88;2075897;28;20045;-64
2022/06/28 17:55:53;;;;;;;5.10;2.63;;;;;;;21.78;65.29;101203.16;2075974;28;21067;-64
2022/06/28 17:56:58;;;;;;;3.90;2.33;;;;;;;21.65;65.32;101216.81;2074462;28;20121;-65
2022/06/28 17:58:04;;;;;;;4.65;2.42;;;;;;;21.60;65.67;101202.56;2067774;28;21366;-64
2022/06/28 17:59:08;;;;;;;3.25;2.00;;;;;;;21.60;65.88;101197.88;2066208;28;20061;-63
2022/06/28 18:00:11;;;;;;;3.40;2.17;;;;;;;21.57;66.12;101208.69;2068380;28;20029;-63
2022/06/28 18:01:17;;;;;;;4.30;2.35;;;;;;;21.47;65.98;101199.78;2072356;28;20563;-64
2022/06/28 18:02:19;;;;;;;3.72;2.30;;;;;;;21.45;66.30;101202.03;2076462;28;20084;-64
2022/06/28 18:03:26;;;;;;;4.85;2.55;;;;;;;21.44;66.53;101200.44;2072454;28;20477;-66
2022/06/28 18:04:29;;;;;;;4.45;2.60;;;;;;;21.45;66.24;101196.56;2068596;28;20498;-65
2022/06/28 18:05:31;;;;;;;6.30;2.83;;;;;;;21.47;66.01;101194.31;2075106;28;20064;-64
2022/06/28 18:06:33;;;;;;;2.92;2.40;;;;;;;21.48;66.02;101193.16;2065112;28;20046;-64
2022/06/28 18:07:35;;;;;;;3.42;2.08;;;;;;;21.49;66.08;101197.47;2061391;28;20048;-65
2022/06/28 18:08:38;;;;;;;5.82;2.33;;;;;;;21.42;65.94;101199.97;2045302;28;20471;-65
2022/06/28 18:09:40;;;;;;;4.00;2.63;;;;;;;21.41;66.38;101206.59;2060097;28;20046;-65
2022/06/28 18:10:42;;;;;;;4.18;2.50;;;;;;;21.43;66.21;101207.03;2051312;28;20533;-64
2022/06/28 18:11:44;;;;;;;3.95;2.47;;;;;;;21.40;66.31;101206.91;2061835;28;20640;-64
2022/06/28 18:12:51;;;;;;;4.55;2.15;;;;;;;21.40;66.02;101202.22;2068581;28;20041;-64
2022/06/28 18:13:54;;;;;;;4.75;2.50;;;;;;;21.37;65.79;101200.16;2073954;28;20040;-64
2022/06/28 18:14:56;;;;;;;4.32;2.35;;;;;;;21.33;65.80;101209.38;2069613;28;20037;-65
2022/06/28 18:15:59;;;;;;;4.57;2.28;;;;;;;21.33;65.81;101210.16;2056745;28;20041;-63
2022/06/28 18:17:02;;;;;;;6.65;3.22;;;;;;;21.33;65.96;101220.31;2066998;28;20063;-62
2022/06/28 18:18:06;;;;;;;8.40;3.80;;;;;;;21.30;65.96;101210.84;2068470;28;20143;-63
2022/06/28 18:19:08;;;;;;;6.65;2.70;;;;;;;21.30;65.50;101221.78;2075669;28;20050;-65
2022/06/28 18:20:11;;;;;;;29.80;13.20;;;;;;;21.30;65.38;101216.31;2062744;28;21323;-63
2022/06/28 18:21:14;;;;;;;6.00;2.88;;;;;;;21.26;65.35;101215.38;2058385;28;20052;-63
2022/06/28 18:22:16;;;;;;;6.60;3.75;;;;;;;21.23;66.00;101225.06;2067230;28;20053;-63
2022/06/28 18:23:20;;;;;;;10.05;5.13;;;;;;;21.25;65.54;101213.78;2071248;28;20099;-64
2022/06/28 18:24:22;;;;;;;8.77;5.20;;;;;;;21.27;65.72;101216.97;2066435;28;20036;-63
2022/06/28 18:25:29;;;;;;;12.45;4.95;;;;;;;21.25;65.62;101220.06;2060539;28;20050;-63
2022/06/28 18:26:32;;;;;;;6.82;3.30;;;;;;;21.21;65.60;101226.50;2059778;28;20046;-64
2022/06/28 18:27:35;;;;;;;7.53;2.75;;;;;;;21.22;65.70;101215.25;2073585;28;20061;-64
2022/06/28 18:28:39;;;;;;;4.03;2.88;;;;;;;21.19;65.27;101229.59;2073437;28;20044;-63
2022/06/28 18:29:41;;;;;;;5.82;2.28;;;;;;;21.07;65.70;101232.25;2068955;28;20037;-64
2022/06/28 18:30:49;;;;;;;4.38;2.38;;;;;;;21.08;65.55;101222.91;2054747;28;20030;-64
2022/06/28 18:31:59;;;;;;;1.83;1.58;;;;;;;21.00;65.60;101224.59;1216342;28;10001941;-64
2022/06/28 18:33:01;;;;;;;5.35;2.22;;;;;;;20.98;65.68;101224.13;2051117;28;20289;-65
2022/06/28 18:34:04;;;;;;;6.03;2.10;;;;;;;21.04;65.22;101225.50;2038140;28;20039;-64
2022/06/28 18:35:08;;;;;;;5.03;1.80;;;;;;;21.00;65.25;101230.06;2031594;28;20117;-64
2022/06/28 18:36:14;;;;;;;4.07;1.88;;;;;;;21.01;65.73;101230.84;2046935;28;20042;-65
2022/06/28 18:37:23;;;;;;;4.82;2.17;;;;;;;21.00;65.42;101224.59;2044829;28;20046;-65
2022/06/28 18:38:33;;;;;;;3.72;2.60;;;;;;;20.97;65.23;101216.25;1994913;28;21128;-64
2022/06/28 18:39:36;;;;;;;4.95;2.65;;;;;;;20.96;65.26;101226.38;1160558;28;10001098;-64
2022/06/28 18:40:41;;;;;;;3.97;2.20;;;;;;;20.99;65.36;101227.63;2028379;28;20055;-64
2022/06/28 18:41:45;;;;;;;5.13;1.98;;;;;;;20.96;65.54;101231.84;2058148;28;20394;-65
2022/06/28 18:42:53;;;;;;;2.90;1.83;;;;;;;20.98;65.60;101235.03;2064198;28;20064;-65
2022/06/28 18:43:59;;;;;;;6.18;2.33;;;;;;;20.95;65.84;101232.19;2065239;28;20093;-65
2022/06/28 18:45:07;;;;;;;4.63;1.80;;;;;;;20.90;65.46;101235.09;2065590;28;20406;-64
2022/06/28 18:46:11;;;;;;;2.95;2.30;;;;;;;20.86;65.77;101225.97;2063686;28;20045;-65
2022/06/28 18:47:15;;;;;;;3.10;2.20;;;;;;;20.84;65.70;101226.31;2064574;28;20038;-64
2022/06/28 18:48:16;;;;;;;5.40;2.50;;;;;;;20.80;66.00;101228.09;2073554;28;20101;-64
2022/06/28 18:49:21;;;;;;;5.00;2.65;;;;;;;20.72;66.41;101228.97;2070366;28;20094;-64
2022/06/28 18:50:26;;;;;;;6.15;2.78;;;;;;;20.74;66.18;101232.16;2052831;28;20068;-65
2022/06/28 18:51:30;;;;;;;7.50;3.50;;;;;;;20.68;66.44;101236.19;2067421;28;20133;-64
2022/06/28 18:52:32;;;;;;;5.90;2.50;;;;;;;20.71;66.53;101241.00;2063624;28;20057;-64
2022/06/28 18:53:40;;;;;;;5.03;2.13;;;;;;;20.69;66.60;101240.56;2059526;28;20057;-65
2022/06/28 18:54:44;;;;;;;3.15;2.35;;;;;;;20.69;66.50;101240.56;2052230;28;20046;-64
2022/06/28 18:55:51;;;;;;;6.03;2.58;;;;;;;20.63;66.67;101244.59;2055501;28;20560;-64
2022/06/28 18:56:55;;;;;;;2.63;2.10;;;;;;;20.57;67.11;101244.78;2062176;28;20541;-64
2022/06/28 18:58:04;;;;;;;4.05;2.35;;;;;;;20.55;67.45;101251.69;2062188;28;20050;-64
2022/06/28 18:59:07;;;;;;;5.75;2.40;;;;;;;20.52;67.13;101249.63;2061086;28;20801;-64
2022/06/28 19:00:10;;;;;;;3.22;2.05;;;;;;;20.48;67.64;101262.31;2061036;28;20053;-65
2022/06/28 19:01:14;;;;;;;6.95;2.50;;;;;;;20.47;67.47;101266.19;2055270;28;20184;-64
2022/06/28 19:02:16;;;;;;;4.03;2.28;;;;;;;20.46;67.50;101259.09;2052219;28;20055;-63
2022/06/28 19:03:23;;;;;;;3.90;2.00;;;;;;;20.41;68.00;101265.56;2056957;28;20093;-64
2022/06/28 19:04:29;;;;;;;5.20;2.28;;;;;;;20.33;67.89;101271.84;2065277;28;20068;-65
2022/06/28 19:05:32;;;;;;;5.68;1.90;;;;;;;20.29;68.01;101277.16;2071767;28;20658;-65
2022/06/28 19:06:38;;;;;;;6.07;1.80;;;;;;;20.30;67.91;101273.31;2051953;28;20061;-64
2022/06/28 19:07:43;;;;;;;3.85;2.47;;;;;;;20.31;68.01;101274.13;2055204;28;20061;-65
2022/06/28 19:08:47;;;;;;;4.53;2.30;;;;;;;20.28;68.20;101275.56;2061237;28;20046;-63
2022/06/28 19:09:48;;;;;;;5.15;2.33;;;;;;;20.30;68.33;101277.97;2062804;28;20061;-64
2022/06/28 19:10:55;;;;;;;3.20;2.05;;;;;;;20.29;68.28;101265.44;2048303;28;20039;-65
2022/06/28 19:11:58;;;;;;;3.80;1.90;;;;;;;20.21;68.34;101274.44;2054040;28;20062;-65
2022/06/28 19:13:01;;;;;;;5.15;2.28;;;;;;;20.18;68.29;101272.41;2068031;28;20421;-64
2022/06/28 19:14:04;;;;;;;5.07;2.20;;;;;;;20.14;68.64;101264.88;2062134;28;20053;-63
2022/06/28 19:15:09;;;;;;;4.65;2.25;;;;;;;20.16;68.50;101271.91;2061430;28;20061;-64
2022/06/28 19:16:13;;;;;;;4.45;2.30;;;;;;;20.12;68.46;101272.56;2062368;28;20029;-63
2022/06/28 19:17:17;;;;;;;5.50;2.30;;;;;;;20.10;68.56;101276.75;2063997;28;20476;-63
2022/06/28 19:18:21;;;;;;;5.55;2.33;;;;;;;19.98;68.91;101277.41;2057082;28;20057;-64
2022/06/28 19:19:28;;;;;;;6.05;2.53;;;;;;;20.01;68.93;101282.22;2064596;28;20053;-63
2022/06/28 19:20:35;;;;;;;4.50;2.40;;;;;;;20.02;68.74;101277.56;2051946;28;20049;-64
2022/06/28 19:21:40;;;;;;;4.65;2.17;;;;;;;19.98;68.88;101285.59;2062586;28;20054;-65
2022/06/28 19:22:42;;;;;;;4.25;2.38;;;;;;;19.97;68.69;101281.28;2056539;28;20058;-65
2022/06/28 19:23:47;;;;;;;6.22;2.38;;;;;;;19.93;69.24;101291.25;2062603;28;20064;-65
2022/06/28 19:24:54;;;;;;;5.22;2.58;;;;;;;19.94;69.12;101292.03;2062067;28;20069;-64
2022/06/28 19:25:57;;;;;;;4.07;2.10;;;;;;;19.90;69.22;101292.69;2064720;28;20042;-64
2022/06/28 19:27:04;;;;;;;7.50;2.50;;;;;;;19.96;68.75;101296.06;2058463;28;20051;-69
2022/06/28 19:28:09;;;;;;;5.47;2.05;;;;;;;20.00;68.78;101293.47;2058214;28;20065;-68
2022/06/28 19:29:13;;;;;;;4.53;2.03;;;;;;;19.99;68.79;101292.69;2047761;28;20069;-65
2022/06/28 19:30:16;;;;;;;5.13;2.00;;;;;;;19.96;68.69;101289.81;2063500;28;20053;-64
2022/06/28 19:31:20;;;;;;;5.72;2.10;;;;;;;19.97;68.85;101292.19;2063076;28;20061;-66
2022/06/28 19:32:22;;;;;;;6.20;2.17;;;;;;;19.99;68.68;101289.94;2063793;28;20057;-66
2022/06/28 19:33:26;;;;;;;3.97;2.10;;;;;;;19.99;68.68;101297.34;2053910;28;20050;-64
2022/06/28 19:34:30;;;;;;;4.53;1.73;;;;;;;20.00;68.42;101291.53;2061951;28;20493;-65
2022/06/28 19:35:36;;;;;;;3.28;1.75;;;;;;;20.03;68.26;101290.88;2071391;28;20058;-65
2022/06/28 19:36:42;;;;;;;5.22;2.30;;;;;;;20.02;67.71;101288.47;2061822;28;20040;-65
2022/06/28 19:37:44;;;;;;;2.53;1.90;;;;;;;20.02;68.03;101292.03;2058944;28;20042;-65
2022/06/28 19:38:50;;;;;;;3.97;2.00;;;;;;;20.01;67.90;101295.88;2073943;28;20056;-66
2022/06/28 19:39:53;;;;;;;3.13;1.73;;;;;;;20.02;68.31;101292.03;2072884;28;20037;-65
2022/06/28 19:40:59;;;;;;;4.00;2.00;;;;;;;20.04;67.79;101291.69;2065110;28;20414;-64
2022/06/28 19:42:04;;;;;;;5.82;2.00;;;;;;;20.02;67.57;101297.50;2067090;28;20434;-65
2022/06/28 19:43:11;;;;;;;4.05;1.88;;;;;;;19.97;67.65;101299.56;2065378;28;20050;-65
2022/06/28 19:44:18;;;;;;;4.10;1.90;;;;;;;19.98;67.79;101292.97;2063572;28;20057;-65
2022/06/28 19:45:20;;;;;;;2.60;1.75;;;;;;;19.97;67.50;101297.66;2064479;28;20866;-65
2022/06/28 19:46:22;;;;;;;4.47;1.95;;;;;;;19.98;67.26;101304.69;2064225;28;20066;-65
2022/06/28 19:47:27;;;;;;;4.85;2.20;;;;;;;19.91;67.40;101304.41;2064089;28;20054;-65
2022/06/28 19:48:29;;;;;;;4.13;1.88;;;;;;;19.89;67.34;101302.00;2056294;28;20041;-65
2022/06/28 19:49:34;;;;;;;3.40;1.80;;;;;;;19.85;67.14;101294.78;2057661;28;20659;-66
2022/06/28 19:50:40;;;;;;;3.33;1.83;;;;;;;19.82;67.43;101295.41;2055506;28;20038;-65
2022/06/28 19:51:44;;;;;;;3.00;1.70;;;;;;;19.86;67.36;101296.38;2066894;28;20065;-65
2022/06/28 19:52:46;;;;;;;5.45;1.95;;;;;;;19.84;67.33;101301.38;2065487;28;20065;-65
2022/06/28 19:53:49;;;;;;;7.15;1.73;;;;;;;19.88;67.26;101288.66;2058244;28;20670;-65
2022/06/28 19:54:54;;;;;;;2.65;1.80;;;;;;;19.91;66.97;101288.03;2050039;28;20046;-65
2022/06/28 19:55:56;;;;;;;3.88;2.03;;;;;;;19.92;67.15;101286.88;2056740;28;20055;-63
2022/06/28 19:57:00;;;;;;;4.93;2.15;;;;;;;19.89;66.74;101285.63;2065058;28;20057;-65
2022/06/28 19:58:10;;;;;;;2.40;1.70;;;;;;;19.85;66.38;101289.31;2064092;28;20061;-64
2022/06/28 19:59:14;;;;;;;4.93;2.28;;;;;;;19.82;66.50;101293.47;2039577;28;20050;-65
2022/06/28 20:00:15;;;;;;;5.38;1.90;;;;;;;19.81;66.54;101288.38;2051263;28;20043;-66
2022/06/28 20:01:20;;;;;;;3.50;2.08;;;;;;;19.80;66.54;101287.56;2066756;28;20080;-64
2022/06/28 20:02:23;;;;;;;4.35;1.98;;;;;;;19.78;66.63;101289.00;2056774;28;20933;-66
2022/06/28 20:03:28;;;;;;;4.35;1.83;;;;;;;19.73;66.46;101294.63;2067327;28;20080;-66
2022/06/28 20:04:30;;;;;;;5.10;1.92;;;;;;;19.71;67.03;101285.97;2056764;28;20039;-65
2022/06/28 20:05:38;;;;;;;3.55;1.85;;;;;;;19.73;67.11;101294.63;2042934;28;20047;-65
2022/06/28 20:06:42;;;;;;;3.50;1.80;;;;;;;19.77;66.89;101287.41;2059803;28;20042;-65
2022/06/28 20:07:44;;;;;;;3.15;1.88;;;;;;;19.75;66.46;101284.19;2065309;28;20053;-65
2022/06/28 20:08:49;;;;;;;4.07;1.80;;;;;;;19.71;66.41;101288.72;2066246;28;20042;-65
2022/06/28 20:09:51;;;;;;;4.30;2.13;;;;;;;19.65;66.31;101291.59;2065794;28;20038;-65
2022/06/28 20:10:55;;;;;;;11.45;4.80;;;;;;;19.57;66.22;101297.00;2055866;28;20596;-64
2022/06/28 20:11:58;;;;;;;6.18;2.50;;;;;;;19.56;66.41;101290.75;2056119;28;20058;-64
2022/06/28 20:13:00;;;;;;;5.03;2.47;;;;;;;19.54;66.34;101298.44;2058061;28;20108;-64
2022/06/28 20:14:03;;;;;;;11.30;4.50;;;;;;;19.54;66.32;101293.00;2063337;28;20038;-66
2022/06/28 20:15:09;;;;;;;15.32;6.45;;;;;;;19.55;66.39;101302.78;2063924;28;20042;-64
2022/06/28 20:16:12;;;;;;;9.27;2.83;;;;;;;19.57;66.49;101299.72;2054754;28;20420;-65
2022/06/28 20:17:21;;;;;;;6.72;2.65;;;;;;;19.56;66.55;101298.94;2058601;28;20058;-64
2022/06/28 20:18:24;;;;;;;10.43;5.97;;;;;;;19.55;66.37;101308.25;2059324;28;20046;-65
2022/06/28 20:19:28;;;;;;;13.63;6.10;;;;;;;19.58;66.02;101307.59;2064770;28;20120;-64
2022/06/28 20:20:34;;;;;;;6.45;2.80;;;;;;;19.58;65.97;101310.34;2046111;28;20046;-65
2022/06/28 20:21:40;;;;;;;6.03;2.38;;;;;;;19.57;66.10;101316.09;2044359;28;20050;-65
2022/06/28 20:22:46;;;;;;;5.50;2.80;;;;;;;19.51;66.03;101312.72;2051142;28;21055;-65
2022/06/28 20:23:50;;;;;;;5.75;2.60;;;;;;;19.51;66.16;101315.44;2048237;28;20092;-66
2022/06/28 20:24:54;;;;;;;9.10;2.80;;;;;;;19.52;66.12;101319.00;2060234;28;20077;-65
2022/06/28 20:25:56;;;;;;;5.18;2.58;;;;;;;19.52;66.31;101316.28;2064683;28;20073;-65
2022/06/28 20:26:59;;;;;;;9.20;2.75;;;;;;;19.55;65.99;101324.63;2062465;28;20069;-66
2022/06/28 20:28:02;;;;;;;5.10;3.00;;;;;;;19.56;66.38;101318.03;2063845;28;20041;-66